sensor_id;sensor_type;location;lat;lon;timestamp;P1;durP1;ratioP1;P2;durP2;ratioP2
7454;SDS011;3769;51.208;4.454;2023-04-01T00:04:39;7.5;;;3.8;;
7454;SDS011;3769;51.208;4.454;2023-04-01T00:09:39;5.7;;;2.8;;
7454;SDS011;3769;51.208;4.454;2023-04-01T00:14:39;7.9;;;3.2;;
7454;SDS011;3769;51.208;4.454;2023-04-01T00:19:39;5.7;;;3.2;;
7454;SDS011;3769;51.208;4.454;2023-04-01T00:24:39;7.8;;;3.8;;
7454;SDS011;3769;51.208;4.454;2023-04-01T00:29:41;8.1;;;4.6;;
7454;SDS011;3769;51.208;4.454;2023-04-01T00:34:39;7.2;;;5.4;;
7454;SDS011;3769;51.208;4.454;2023-04-01T00:39:39;8.1;;;5.2;;
7454;SDS011;3769;51.208;4.454;2023-04-01T00:44:39;5.9;;;4.6;;
7454;SDS011;3769;51.208;4.454;2023-04-01T00:49:40;10.7;;;5.2;;
7454;SDS011;3769;51.208;4.454;2023-04-01T00:54:39;9.3;;;6.2;;
7454;SDS011;3769;51.208;4.454;2023-04-01T00:59:40;9.5;;;7.2;;
7454;SDS011;3769;51.208;4.454;2023-04-01T01:04:39;10.4;;;6.8;;
7454;SDS011;3769;51.208;4.454;2023-04-01T01:09:45;12.6;;;5.6;;
7454;SDS011;3769;51.208;4.454;2023-04-01T01:19:45;8.8;;;4.7;;
7454;SDS011;3769;51.208;4.454;2023-04-01T01:24:41;22.4;;;13.5;;
7454;SDS011;3769;51.208;4.454;2023-04-01T01:29:53;9.6;;;4.1;;
7454;SDS011;3769;51.208;4.454;2023-04-01T01:34:45;8.6;;;3.5;;
7454;SDS011;3769;51.208;4.454;2023-04-01T01:39:39;8.9;;;3.7;;
7454;SDS011;3769;51.208;4.454;2023-04-01T01:44:39;8;;;3.7;;
7454;SDS011;3769;51.208;4.454;2023-04-01T01:49:39;5.1;;;3.2;;
7454;SDS011;3769;51.208;4.454;2023-04-01T01:54:56;6.2;;;3;;
7454;SDS011;3769;51.208;4.454;2023-04-01T01:59:39;6.8;;;2.9;;
7454;SDS011;3769;51.208;4.454;2023-04-01T02:04:39;6.2;;;2.5;;
7454;SDS011;3769;51.208;4.454;2023-04-01T02:09:39;6.3;;;2.7;;
7454;SDS011;3769;51.208;4.454;2023-04-01T02:14:56;3.5;;;2.4;;
7454;SDS011;3769;51.208;4.454;2023-04-01T02:19:40;5.2;;;2.5;;
7454;SDS011;3769;51.208;4.454;2023-04-01T02:24:39;5.6;;;2.8;;
7454;SDS011;3769;51.208;4.454;2023-04-01T02:29:39;4.6;;;2.9;;
7454;SDS011;3769;51.208;4.454;2023-04-01T02:34:39;4.5;;;3;;
7454;SDS011;3769;51.208;4.454;2023-04-01T02:39:39;5.1;;;3.7;;
7454;SDS011;3769;51.208;4.454;2023-04-01T02:44:39;5.9;;;3.6;;
7454;SDS011;3769;51.208;4.454;2023-04-01T02:49:39;7.2;;;3.8;;
7454;SDS011;3769;51.208;4.454;2023-04-01T02:54:39;5.6;;;3.9;;
7454;SDS011;3769;51.208;4.454;2023-04-01T02:59:39;8.7;;;4.3;;
7454;SDS011;3769;51.208;4.454;2023-04-01T03:04:39;8;;;5.6;;
7454;SDS011;3769;51.208;4.454;2023-04-01T03:09:39;7;;;5.1;;
7454;SDS011;3769;51.208;4.454;2023-04-01T03:14:39;9.1;;;5.8;;
7454;SDS011;3769;51.208;4.454;2023-04-01T03:19:39;11;;;6.8;;
7454;SDS011;3769;51.208;4.454;2023-04-01T03:24:39;10.9;;;6.6;;
7454;SDS011;3769;51.208;4.454;2023-04-01T03:29:39;12.5;;;6;;
7454;SDS011;3769;51.208;4.454;2023-04-01T03:34:39;8.6;;;5.7;;
7454;SDS011;3769;51.208;4.454;2023-04-01T03:39:39;8.4;;;5.8;;
7454;SDS011;3769;51.208;4.454;2023-04-01T03:44:39;11.1;;;5.6;;
7454;SDS011;3769;51.208;4.454;2023-04-01T03:49:39;6.1;;;5.4;;
7454;SDS011;3769;51.208;4.454;2023-04-01T03:54:39;8.5;;;5.2;;
7454;SDS011;3769;51.208;4.454;2023-04-01T03:59:39;8.9;;;5.7;;
7454;SDS011;3769;51.208;4.454;2023-04-01T04:04:39;11.3;;;5.8;;
7454;SDS011;3769;51.208;4.454;2023-04-01T04:09:39;10.2;;;6.2;;
7454;SDS011;3769;51.208;4.454;2023-04-01T04:14:39;9.7;;;5.6;;
7454;SDS011;3769;51.208;4.454;2023-04-01T04:19:39;11;;;6.5;;
7454;SDS011;3769;51.208;4.454;2023-04-01T04:24:39;12.8;;;6.4;;
7454;SDS011;3769;51.208;4.454;2023-04-01T04:29:39;9.9;;;5.8;;
7454;SDS011;3769;51.208;4.454;2023-04-01T04:34:39;8.3;;;5.7;;
7454;SDS011;3769;51.208;4.454;2023-04-01T04:39:39;8.9;;;5.6;;
7454;SDS011;3769;51.208;4.454;2023-04-01T04:44:39;8.3;;;5.2;;
7454;SDS011;3769;51.208;4.454;2023-04-01T04:49:39;6.2;;;4.5;;
7454;SDS011;3769;51.208;4.454;2023-04-01T04:54:39;7.4;;;4.6;;
7454;SDS011;3769;51.208;4.454;2023-04-01T04:59:39;11.8;;;4.5;;
7454;SDS011;3769;51.208;4.454;2023-04-01T05:04:39;6;;;4.2;;
7454;SDS011;3769;51.208;4.454;2023-04-01T05:09:40;6.1;;;4;;
7454;SDS011;3769;51.208;4.454;2023-04-01T05:14:39;4.8;;;3.7;;
7454;SDS011;3769;51.208;4.454;2023-04-01T05:19:39;6.4;;;3.3;;
7454;SDS011;3769;51.208;4.454;2023-04-01T05:24:39;4.2;;;2.8;;
7454;SDS011;3769;51.208;4.454;2023-04-01T05:29:39;3.1;;;2.8;;
7454;SDS011;3769;51.208;4.454;2023-04-01T05:34:39;3.6;;;3.2;;
7454;SDS011;3769;51.208;4.454;2023-04-01T05:39:39;3.5;;;3;;
7454;SDS011;3769;51.208;4.454;2023-04-01T05:44:39;2.3;;;2.1;;
7454;SDS011;3769;51.208;4.454;2023-04-01T05:49:39;2.7;;;2.5;;
7454;SDS011;3769;51.208;4.454;2023-04-01T05:54:39;3.3;;;2.7;;
7454;SDS011;3769;51.208;4.454;2023-04-01T05:59:39;3;;;2.7;;
7454;SDS011;3769;51.208;4.454;2023-04-01T06:04:39;2.1;;;2;;
7454;SDS011;3769;51.208;4.454;2023-04-01T06:09:39;4.2;;;2.6;;
7454;SDS011;3769;51.208;4.454;2023-04-01T06:19:57;2.7;;;2.5;;
7454;SDS011;3769;51.208;4.454;2023-04-01T06:24:43;4.1;;;2.1;;
7454;SDS011;3769;51.208;4.454;2023-04-01T06:34:47;2.7;;;2.3;;
7454;SDS011;3769;51.208;4.454;2023-04-01T06:40:48;2.7;;;2.2;;
7454;SDS011;3769;51.208;4.454;2023-04-01T06:44:43;3.4;;;2;;
7454;SDS011;3769;51.208;4.454;2023-04-01T06:49:56;3.6;;;2;;
7454;SDS011;3769;51.208;4.454;2023-04-01T06:54:40;2.5;;;2.3;;
7454;SDS011;3769;51.208;4.454;2023-04-01T06:59:39;3.2;;;2.1;;
7454;SDS011;3769;51.208;4.454;2023-04-01T07:04:42;2.5;;;2.3;;
7454;SDS011;3769;51.208;4.454;2023-04-01T07:09:40;2.4;;;2.2;;
7454;SDS011;3769;51.208;4.454;2023-04-01T07:14:39;2.9;;;2.6;;
7454;SDS011;3769;51.208;4.454;2023-04-01T07:19:41;3.1;;;2.5;;
7454;SDS011;3769;51.208;4.454;2023-04-01T07:24:40;3;;;2.7;;
7454;SDS011;3769;51.208;4.454;2023-04-01T07:29:39;3;;;2.6;;
7454;SDS011;3769;51.208;4.454;2023-04-01T07:39:44;4.7;;;2.2;;
7454;SDS011;3769;51.208;4.454;2023-04-01T07:44:48;2.6;;;2;;
7454;SDS011;3769;51.208;4.454;2023-04-01T07:50:13;2.6;;;2.3;;
7454;SDS011;3769;51.208;4.454;2023-04-01T07:55:15;2.7;;;2.5;;
7454;SDS011;3769;51.208;4.454;2023-04-01T07:59:44;3.5;;;2.6;;
7454;SDS011;3769;51.208;4.454;2023-04-01T08:04:42;3;;;2.7;;
7454;SDS011;3769;51.208;4.454;2023-04-01T08:09:44;3.5;;;2.5;;
7454;SDS011;3769;51.208;4.454;2023-04-01T08:14:46;2.9;;;2.5;;
7454;SDS011;3769;51.208;4.454;2023-04-01T08:19:52;2.5;;;2.3;;
7454;SDS011;3769;51.208;4.454;2023-04-01T08:24:42;2.3;;;2.1;;
7454;SDS011;3769;51.208;4.454;2023-04-01T08:29:41;2.6;;;2.4;;
7454;SDS011;3769;51.208;4.454;2023-04-01T08:34:40;3.8;;;2.4;;
7454;SDS011;3769;51.208;4.454;2023-04-01T08:39:48;6.9;;;2.5;;
7454;SDS011;3769;51.208;4.454;2023-04-01T08:45:50;2.6;;;2.4;;
7454;SDS011;3769;51.208;4.454;2023-04-01T08:51:23;2.6;;;2.3;;
7454;SDS011;3769;51.208;4.454;2023-04-01T08:54:46;3.1;;;2.1;;
7454;SDS011;3769;51.208;4.454;2023-04-01T08:59:45;1.7;;;1.6;;
7454;SDS011;3769;51.208;4.454;2023-04-01T09:09:53;2;;;1.8;;
7454;SDS011;3769;51.208;4.454;2023-04-01T09:14:44;2.8;;;1.7;;
7454;SDS011;3769;51.208;4.454;2023-04-01T09:24:42;2.8;;;1.4;;
7454;SDS011;3769;51.208;4.454;2023-04-01T09:35:18;3.2;;;1.7;;
7454;SDS011;3769;51.208;4.454;2023-04-01T09:39:42;2.8;;;2;;
7454;SDS011;3769;51.208;4.454;2023-04-01T09:44:42;2.4;;;1.9;;
7454;SDS011;3769;51.208;4.454;2023-04-01T09:49:43;6.7;;;1.8;;
7454;SDS011;3769;51.208;4.454;2023-04-01T09:54:45;3;;;2.1;;
7454;SDS011;3769;51.208;4.454;2023-04-01T10:20:15;5;;;2.9;;
7454;SDS011;3769;51.208;4.454;2023-04-01T10:24:51;6.6;;;2.7;;
7454;SDS011;3769;51.208;4.454;2023-04-01T10:29:48;4.1;;;3.1;;
7454;SDS011;3769;51.208;4.454;2023-04-01T10:44:58;4.1;;;3.2;;
7454;SDS011;3769;51.208;4.454;2023-04-01T10:54:41;4.4;;;3.3;;
7454;SDS011;3769;51.208;4.454;2023-04-01T11:00:16;6;;;3.4;;
7454;SDS011;3769;51.208;4.454;2023-04-01T11:25:45;6.5;;;3.4;;
7454;SDS011;3769;51.208;4.454;2023-04-01T11:30:04;5.1;;;3.9;;
7454;SDS011;3769;51.208;4.454;2023-04-01T11:40:20;8.3;;;5.2;;
7454;SDS011;3769;51.208;4.454;2023-04-01T11:44:43;9.7;;;4.5;;
7454;SDS011;3769;51.208;4.454;2023-04-01T11:49:46;7.2;;;4.8;;
7454;SDS011;3769;51.208;4.454;2023-04-01T12:00:50;8.4;;;4.5;;
7454;SDS011;3769;51.208;4.454;2023-04-01T12:04:44;8.3;;;4.2;;
7454;SDS011;3769;51.208;4.454;2023-04-01T12:09:49;6.4;;;3.8;;
7454;SDS011;3769;51.208;4.454;2023-04-01T12:14:50;9;;;4.1;;
7454;SDS011;3769;51.208;4.454;2023-04-01T12:19:49;6.2;;;4.5;;
7454;SDS011;3769;51.208;4.454;2023-04-01T12:26:15;7.2;;;4.4;;
7454;SDS011;3769;51.208;4.454;2023-04-01T12:31:27;5.8;;;4.8;;
7454;SDS011;3769;51.208;4.454;2023-04-01T12:35:51;4.1;;;3.6;;
7454;SDS011;3769;51.208;4.454;2023-04-01T12:39:51;4.1;;;3.7;;
7454;SDS011;3769;51.208;4.454;2023-04-01T12:46:20;5.2;;;4.2;;
7454;SDS011;3769;51.208;4.454;2023-04-01T12:49:47;6.8;;;4.6;;
7454;SDS011;3769;51.208;4.454;2023-04-01T12:55:44;5;;;3.1;;
7454;SDS011;3769;51.208;4.454;2023-04-01T12:59:47;3.2;;;2.7;;
7454;SDS011;3769;51.208;4.454;2023-04-01T13:05:19;4.7;;;2.9;;
7454;SDS011;3769;51.208;4.454;2023-04-01T13:09:52;3.1;;;2.5;;
7454;SDS011;3769;51.208;4.454;2023-04-01T13:15:13;2.5;;;2.3;;
7454;SDS011;3769;51.208;4.454;2023-04-01T13:19:44;5.9;;;2.5;;
7454;SDS011;3769;51.208;4.454;2023-04-01T13:24:58;5.6;;;3.1;;
7454;SDS011;3769;51.208;4.454;2023-04-01T13:29:43;5.8;;;2.9;;
7454;SDS011;3769;51.208;4.454;2023-04-01T13:34:44;6.4;;;2.8;;
7454;SDS011;3769;51.208;4.454;2023-04-01T13:39:57;4.8;;;2.8;;
7454;SDS011;3769;51.208;4.454;2023-04-01T13:59:52;3.4;;;2.4;;
7454;SDS011;3769;51.208;4.454;2023-04-01T14:04:42;3.2;;;2.6;;
7454;SDS011;3769;51.208;4.454;2023-04-01T14:10:46;6;;;2.9;;
7454;SDS011;3769;51.208;4.454;2023-04-01T14:14:45;4;;;2.7;;
7454;SDS011;3769;51.208;4.454;2023-04-01T14:30:23;4.2;;;2.7;;
7454;SDS011;3769;51.208;4.454;2023-04-01T14:34:44;4.1;;;3;;
7454;SDS011;3769;51.208;4.454;2023-04-01T14:45:00;7.1;;;4.2;;
7454;SDS011;3769;51.208;4.454;2023-04-01T14:49:41;11.6;;;7.4;;
7454;SDS011;3769;51.208;4.454;2023-04-01T14:54:40;15.4;;;8.3;;
7454;SDS011;3769;51.208;4.454;2023-04-01T14:59:40;16.5;;;8.5;;
7454;SDS011;3769;51.208;4.454;2023-04-01T15:04:43;13.9;;;7.8;;
7454;SDS011;3769;51.208;4.454;2023-04-01T15:09:42;8.9;;;6.3;;
7454;SDS011;3769;51.208;4.454;2023-04-01T15:14:42;9.1;;;5.1;;
7454;SDS011;3769;51.208;4.454;2023-04-01T15:19:50;7.7;;;6.1;;
7454;SDS011;3769;51.208;4.454;2023-04-01T15:24:46;6.5;;;4.3;;
7454;SDS011;3769;51.208;4.454;2023-04-01T15:29:45;5.7;;;3.8;;
7454;SDS011;3769;51.208;4.454;2023-04-01T15:34:44;5.3;;;3.7;;
7454;SDS011;3769;51.208;4.454;2023-04-01T15:39:46;4;;;3.3;;
7454;SDS011;3769;51.208;4.454;2023-04-01T15:44:58;5.6;;;3.3;;
7454;SDS011;3769;51.208;4.454;2023-04-01T15:49:43;2.6;;;2.4;;
7454;SDS011;3769;51.208;4.454;2023-04-01T15:59:47;3.3;;;2.4;;
7454;SDS011;3769;51.208;4.454;2023-04-01T16:09:43;3.4;;;2.6;;
7454;SDS011;3769;51.208;4.454;2023-04-01T16:15:14;4;;;2.8;;
7454;SDS011;3769;51.208;4.454;2023-04-01T16:19:55;3.6;;;2.9;;
7454;SDS011;3769;51.208;4.454;2023-04-01T16:24:43;4.2;;;2.9;;
7454;SDS011;3769;51.208;4.454;2023-04-01T16:29:44;5.7;;;3.5;;
7454;SDS011;3769;51.208;4.454;2023-04-01T16:34:42;6.6;;;5.1;;
7454;SDS011;3769;51.208;4.454;2023-04-01T16:39:43;9.8;;;6.6;;
7454;SDS011;3769;51.208;4.454;2023-04-01T16:44:49;14.1;;;9.6;;
7454;SDS011;3769;51.208;4.454;2023-04-01T16:49:41;20.8;;;13.3;;
7454;SDS011;3769;51.208;4.454;2023-04-01T16:54:44;12;;;6.9;;
7454;SDS011;3769;51.208;4.454;2023-04-01T16:59:52;19.2;;;10.1;;
7454;SDS011;3769;51.208;4.454;2023-04-01T17:04:43;24.4;;;12.5;;
7454;SDS011;3769;51.208;4.454;2023-04-01T17:10:16;14.5;;;8.4;;
7454;SDS011;3769;51.208;4.454;2023-04-01T17:15:16;22.8;;;10.3;;
7454;SDS011;3769;51.208;4.454;2023-04-01T17:24:51;9.4;;;5.2;;
7454;SDS011;3769;51.208;4.454;2023-04-01T17:30:13;15.1;;;6.8;;
7454;SDS011;3769;51.208;4.454;2023-04-01T17:34:43;13;;;6.9;;
7454;SDS011;3769;51.208;4.454;2023-04-01T17:39:49;14.7;;;9.2;;
7454;SDS011;3769;51.208;4.454;2023-04-01T17:45:17;19.7;;;7.9;;
7454;SDS011;3769;51.208;4.454;2023-04-01T17:49:42;24.3;;;11.3;;
7454;SDS011;3769;51.208;4.454;2023-04-01T17:59:44;26.7;;;10.7;;
7454;SDS011;3769;51.208;4.454;2023-04-01T18:04:44;22.3;;;10.7;;
7454;SDS011;3769;51.208;4.454;2023-04-01T18:14:44;21.3;;;9.6;;
7454;SDS011;3769;51.208;4.454;2023-04-01T18:24:41;25.6;;;11;;
7454;SDS011;3769;51.208;4.454;2023-04-01T18:29:41;22.5;;;10.2;;
7454;SDS011;3769;51.208;4.454;2023-04-01T18:34:43;19;;;8;;
7454;SDS011;3769;51.208;4.454;2023-04-01T18:39:40;13.9;;;8.3;;
7454;SDS011;3769;51.208;4.454;2023-04-01T18:59:42;14.8;;;7.8;;
7454;SDS011;3769;51.208;4.454;2023-04-01T19:04:41;17.1;;;9.1;;
7454;SDS011;3769;51.208;4.454;2023-04-01T19:09:44;14.2;;;9.1;;
7454;SDS011;3769;51.208;4.454;2023-04-01T19:15:49;17.8;;;11.3;;
7454;SDS011;3769;51.208;4.454;2023-04-01T19:19:50;19.3;;;11.2;;
7454;SDS011;3769;51.208;4.454;2023-04-01T19:34:49;26;;;14.5;;
7454;SDS011;3769;51.208;4.454;2023-04-01T19:39:45;28.5;;;14;;
7454;SDS011;3769;51.208;4.454;2023-04-01T19:49:47;25.4;;;14.9;;
7454;SDS011;3769;51.208;4.454;2023-04-01T19:54:47;26;;;14;;
7454;SDS011;3769;51.208;4.454;2023-04-01T20:00:44;22.5;;;14.6;;
7454;SDS011;3769;51.208;4.454;2023-04-01T20:04:40;20.2;;;13.3;;
7454;SDS011;3769;51.208;4.454;2023-04-01T20:09:45;20.6;;;13.2;;
7454;SDS011;3769;51.208;4.454;2023-04-01T20:14:56;21.4;;;13.1;;
7454;SDS011;3769;51.208;4.454;2023-04-01T20:20:18;14.6;;;11.4;;
7454;SDS011;3769;51.208;4.454;2023-04-01T20:24:41;12.9;;;9.9;;
7454;SDS011;3769;51.208;4.454;2023-04-01T20:29:41;11.7;;;8.6;;
7454;SDS011;3769;51.208;4.454;2023-04-01T20:35:14;10.9;;;8.7;;
7454;SDS011;3769;51.208;4.454;2023-04-01T20:40:20;9.4;;;8.1;;
7454;SDS011;3769;51.208;4.454;2023-04-01T20:49:41;9.1;;;7.9;;
7454;SDS011;3769;51.208;4.454;2023-04-01T20:54:43;8.6;;;7.7;;
7454;SDS011;3769;51.208;4.454;2023-04-01T20:59:46;9.3;;;7.5;;
7454;SDS011;3769;51.208;4.454;2023-04-01T21:05:00;8.3;;;7.2;;
7454;SDS011;3769;51.208;4.454;2023-04-01T21:09:46;9.4;;;7.9;;
7454;SDS011;3769;51.208;4.454;2023-04-01T21:24:58;10.6;;;9.4;;
7454;SDS011;3769;51.208;4.454;2023-04-01T21:30:49;11;;;9.5;;
7454;SDS011;3769;51.208;4.454;2023-04-01T21:34:43;13;;;11.1;;
7454;SDS011;3769;51.208;4.454;2023-04-01T21:40:17;13.6;;;11.6;;
7454;SDS011;3769;51.208;4.454;2023-04-01T21:44:41;14.5;;;12;;
7454;SDS011;3769;51.208;4.454;2023-04-01T21:50:01;18.9;;;15.3;;
7454;SDS011;3769;51.208;4.454;2023-04-01T21:54:46;19.3;;;15.6;;
7454;SDS011;3769;51.208;4.454;2023-04-01T22:04:56;17.4;;;14.2;;
7454;SDS011;3769;51.208;4.454;2023-04-01T22:09:59;17.4;;;13.8;;
7454;SDS011;3769;51.208;4.454;2023-04-01T22:14:43;15.4;;;13.1;;
7454;SDS011;3769;51.208;4.454;2023-04-01T22:19:47;16.8;;;13.8;;
7454;SDS011;3769;51.208;4.454;2023-04-01T22:24:46;17.4;;;13.9;;
7454;SDS011;3769;51.208;4.454;2023-04-01T22:29:45;17.4;;;14.2;;
7454;SDS011;3769;51.208;4.454;2023-04-01T22:34:45;17.2;;;13.8;;
7454;SDS011;3769;51.208;4.454;2023-04-01T22:40:46;18.5;;;15.6;;
7454;SDS011;3769;51.208;4.454;2023-04-01T22:49:41;23.7;;;17;;
7454;SDS011;3769;51.208;4.454;2023-04-01T22:54:45;21.5;;;17;;
7454;SDS011;3769;51.208;4.454;2023-04-01T23:04:41;22.1;;;17.3;;
7454;SDS011;3769;51.208;4.454;2023-04-01T23:09:39;24.2;;;17.6;;
7454;SDS011;3769;51.208;4.454;2023-04-01T23:14:43;24.2;;;18;;
7454;SDS011;3769;51.208;4.454;2023-04-01T23:19:49;24.1;;;18.7;;
7454;SDS011;3769;51.208;4.454;2023-04-01T23:24:41;19.9;;;16.3;;
7454;SDS011;3769;51.208;4.454;2023-04-01T23:29:39;20.6;;;15.5;;
7454;SDS011;3769;51.208;4.454;2023-04-01T23:34:39;19.1;;;14.9;;
7454;SDS011;3769;51.208;4.454;2023-04-01T23:39:40;18.5;;;14.9;;
7454;SDS011;3769;51.208;4.454;2023-04-01T23:44:39;20.2;;;15.1;;
7454;SDS011;3769;51.208;4.454;2023-04-01T23:49:40;18.8;;;15;;
7454;SDS011;3769;51.208;4.454;2023-04-01T23:54:42;21.5;;;15.6;;
7454;SDS011;3769;51.208;4.454;2023-04-01T23:59:39;20.9;;;14.9;;
